Latest Weather Observations for Inner Beacon

IDQ60801

Issued at 12:05 pm EST Saturday 19 April 2014 (issued every 30 minutes, with the page automatically refreshed every 10 minutes)

About weather observations | Map of weather stations | Latest weather observations for QLD | Other Formats
Station Details ID: 040926 Name: INNER RECIPROCAL MARKER Lat: -27.26 Lon: 153.24 Height: 20.0 m
Data from the previous 72 hours. | See also: Recent months for locations in Queensland
Date/Time
EST
Temp
°C
App
Temp
°C
Dew
Point
Rel
Hum
%
Delta-T
°C
Wind Press
QNH
hPa
Press
MSL
hPa
Rain
since 9 am
mm
Dir
 
Spd
km/h
Gust
km/h
Spd
kts
Gust
kts
19/12:00pm - - - - - S 4 6 2 3 - - -
19/11:30am - - - - - S 6 9 3 5 - - -
19/11:00am - - - - - SW 11 13 6 7 - - -
19/10:30am - - - - - WSW 9 11 5 6 - - -
19/10:00am - - - - - SW 9 13 5 7 - - -
19/09:30am - - - - - WSW 11 13 6 7 - - -
19/09:00am - - - - - WSW 7 9 4 5 - - -
19/08:30am - - - - - SW 7 9 4 5 - - -
19/08:00am - - - - - SSW 7 9 4 5 - - -
19/07:30am - - - - - SSW 7 9 4 5 - - -
19/07:00am - - - - - WSW 11 13 6 7 - - -
19/06:30am - - - - - WSW 11 11 6 6 - - -
19/06:00am - - - - - WSW 9 13 5 7 - - -
19/05:30am - - - - - WSW 11 15 6 8 - - -
19/05:00am - - - - - W 6 9 3 5 - - -
19/04:30am - - - - - WSW 9 11 5 6 - - -
19/04:00am - - - - - SW 7 9 4 5 - - -
19/03:30am - - - - - SW 11 13 6 7 - - -
19/03:00am - - - - - W 13 17 7 9 - - -
19/02:30am - - - - - WNW 11 13 6 7 - - -
19/02:00am - - - - - WNW 13 15 7 8 - - -
19/01:30am - - - - - NNW 17 19 9 10 - - -
19/01:00am - - - - - NNW 19 26 10 14 - - -
19/12:30am - - - - - N 22 26 12 14 - - -
19/12:00am - - - - - N 17 20 9 11 - - -
 
Date/Time
EST
Temp
°C
App
Temp
°C
Dew
Point
Rel
Hum
%
Delta-T
°C
Wind Press
QNH
hPa
Press
MSL
hPa
Rain
since 9 am
mm
Dir
 
Spd
km/h
Gust
km/h
Spd
kts
Gust
kts
18/11:30pm - - - - - N 15 17 8 9 - - -
18/11:00pm - - - - - NNW 13 15 7 8 - - -
18/10:30pm - - - - - NW 13 15 7 8 - - -
18/10:00pm - - - - - WNW 11 13 6 7 - - -
18/09:30pm - - - - - N 20 24 11 13 - - -
18/09:00pm - - - - - NE 20 26 11 14 - - -
18/08:30pm - - - - - NE 22 24 12 13 - - -
18/08:00pm - - - - - NE 22 26 12 14 - - -
18/07:30pm - - - - - NE 22 24 12 13 - - -
18/07:00pm - - - - - NE 24 26 13 14 - - -
18/06:30pm - - - - - NE 22 26 12 14 - - -
18/06:00pm - - - - - NE 22 26 12 14 - - -
18/05:30pm - - - - - NE 19 22 10 12 - - -
18/05:00pm - - - - - NE 15 17 8 9 - - -
18/04:30pm - - - - - NE 15 17 8 9 - - -
18/04:00pm - - - - - NE 13 15 7 8 - - -
18/03:30pm - - - - - NE 11 13 6 7 - - -
18/03:00pm - - - - - NE 11 13 6 7 - - -
18/02:30pm - - - - - NE 9 11 5 6 - - -
18/02:00pm - - - - - NE 11 13 6 7 - - -
18/01:30pm - - - - - NE 7 9 4 5 - - -
18/01:00pm - - - - - ENE 6 9 3 5 - - -
18/12:30pm - - - - - ENE 4 6 2 3 - - -
18/12:00pm - - - - - CALM 0 0 0 0 - - -
18/11:30am - - - - - S 2 6 1 3 - - -
18/11:00am - - - - - S 2 6 1 3 - - -
18/10:30am - - - - - S 6 7 3 4 - - -
18/10:00am - - - - - S 7 9 4 5 - - -
18/09:30am - - - - - SSW 11 13 6 7 - - -
18/09:00am - - - - - S 11 15 6 8 - - -
18/08:30am - - - - - SSW 15 17 8 9 - - -
18/08:00am - - - - - SSW 15 19 8 10 - - -
18/07:30am - - - - - SSW 13 15 7 8 - - -
18/07:00am - - - - - SSW 13 15 7 8 - - -
18/06:30am - - - - - SW 11 13 6 7 - - -
18/06:00am - - - - - SSW 11 13 6 7 - - -
18/05:30am - - - - - S 11 13 6 7 - - -
18/05:00am - - - - - SSW 15 17 8 9 - - -
18/04:30am - - - - - SSW 15 17 8 9 - - -
18/04:00am - - - - - SSW 13 17 7 9 - - -
18/03:30am - - - - - S 15 20 8 11 - - -
18/03:00am - - - - - S 15 19 8 10 - - -
18/02:30am - - - - - S 15 19 8 10 - - -
18/02:00am - - - - - S 13 15 7 8 - - -
18/01:30am - - - - - S 13 15 7 8 - - -
18/01:00am - - - - - SSW 11 13 6 7 - - -
18/12:30am - - - - - SSW 13 15 7 8 - - -
18/12:00am - - - - - W 9 11 5 6 - - -
 
Date/Time
EST
Temp
°C
App
Temp
°C
Dew
Point
Rel
Hum
%
Delta-T
°C
Wind Press
QNH
hPa
Press
MSL
hPa
Rain
since 9 am
mm
Dir
 
Spd
km/h
Gust
km/h
Spd
kts
Gust
kts
17/11:30pm - - - - - CALM 0 2 0 1 - - -
17/11:00pm - - - - - E 2 4 1 2 - - -
17/10:30pm - - - - - E 6 7 3 4 - - -
17/10:00pm - - - - - ESE 6 9 3 5 - - -
17/09:30pm - - - - - SE 7 9 4 5 - - -
17/09:00pm - - - - - E 9 13 5 7 - - -
17/08:30pm - - - - - ESE 11 13 6 7 - - -
17/08:00pm - - - - - ESE 11 17 6 9 - - -
17/07:30pm - - - - - E 13 17 7 9 - - -
17/07:00pm - - - - - E 17 22 9 12 - - -
17/06:30pm - - - - - E 17 19 9 10 - - -
17/06:00pm - - - - - E 17 20 9 11 - - -
17/05:30pm - - - - - E 20 24 11 13 - - -
17/05:00pm - - - - - E 19 22 10 12 - - -
17/04:30pm - - - - - E 19 22 10 12 - - -
17/04:00pm - - - - - E 19 22 10 12 - - -
17/03:30pm - - - - - E 13 15 7 8 - - -
17/03:00pm - - - - - E 11 13 6 7 - - -
17/02:30pm - - - - - E 13 15 7 8 - - -
17/02:00pm - - - - - E 13 17 7 9 - - -
17/01:30pm - - - - - E 9 11 5 6 - - -
17/01:00pm - - - - - E 9 9 5 5 - - -
17/12:30pm - - - - - E 7 9 4 5 - - -
17/12:00pm - - - - - SE 6 7 3 4 - - -
17/11:30am - - - - - SSE 7 11 4 6 - - -
17/11:00am - - - - - S 6 7 3 4 - - -
17/10:30am - - - - - S 9 13 5 7 - - -
17/10:00am - - - - - S 13 17 7 9 - - -
17/09:30am - - - - - SSW 13 17 7 9 - - -
17/09:00am - - - - - SSW 15 19 8 10 - - -
17/08:30am - - - - - SSW 19 22 10 12 - - -
17/08:00am - - - - - SW 19 20 10 11 - - -
17/07:30am - - - - - SW 19 20 10 11 - - -
17/07:00am - - - - - SW 20 22 11 12 - - -
17/06:30am - - - - - SW 19 22 10 12 - - -
17/06:00am - - - - - SW 17 19 9 10 - - -
17/05:30am - - - - - SW 19 20 10 11 - - -
17/05:00am - - - - - SW 20 22 11 12 - - -
17/04:30am - - - - - SW 19 22 10 12 - - -
17/04:00am - - - - - SW 19 20 10 11 - - -
17/03:30am - - - - - SW 17 19 9 10 - - -
17/03:00am - - - - - SSW 17 19 9 10 - - -
17/02:30am - - - - - SSW 17 20 9 11 - - -
17/02:00am - - - - - SSW 20 24 11 13 - - -
17/01:30am - - - - - S 26 32 14 17 - - -
17/01:00am - - - - - S 30 35 16 19 - - -
17/12:30am - - - - - SSE 33 39 18 21 - - -
17/12:00am - - - - - SSE 30 35 16 19 - - -
 
Date/Time
EST
Temp
°C
App
Temp
°C
Dew
Point
Rel
Hum
%
Delta-T
°C
Wind Press
QNH
hPa
Press
MSL
hPa
Rain
since 9 am
mm
Dir
 
Spd
km/h
Gust
km/h
Spd
kts
Gust
kts
16/11:30pm - - - - - SSE 24 28 13 15 - - -
16/11:00pm - - - - - S 24 28 13 15 - - -
16/10:30pm - - - - - S 22 26 12 14 - - -
16/10:00pm - - - - - SSE 24 28 13 15 - - -
16/09:30pm - - - - - SSE 19 22 10 12 - - -
16/09:00pm - - - - - SE 19 22 10 12 - - -
16/08:30pm - - - - - SE 22 26 12 14 - - -
16/08:00pm - - - - - SE 20 24 11 13 - - -
16/07:30pm - - - - - SE 22 30 12 16 - - -
16/07:00pm - - - - - ESE 19 24 10 13 - - -
16/06:30pm - - - - - ESE 20 24 11 13 - - -
16/06:00pm - - - - - ESE 20 26 11 14 - - -
16/05:30pm - - - - - ESE 22 24 12 13 - - -
16/05:00pm - - - - - E 20 28 11 15 - - -
16/04:30pm - - - - - E 17 24 9 13 - - -
16/04:00pm - - - - - E 20 28 11 15 - - -
16/03:30pm - - - - - E 15 22 8 12 - - -
16/03:00pm - - - - - E 15 17 8 9 - - -
16/02:30pm - - - - - E 15 17 8 9 - - -
16/02:00pm - - - - - E 15 20 8 11 - - -
16/01:30pm - - - - - ENE 6 7 3 4 - - -
16/01:00pm - - - - - E 9 13 5 7 - - -
16/12:30pm - - - - - E 4 6 2 3 - - -

Other Formats:

Comma delimited format used in spreadsheet applications
http://www.bom.gov.au/fwo/IDQ60801/IDQ60801.94590.axf

JavaScript Object Notation format (JSON) in row-major order
http://www.bom.gov.au/fwo/IDQ60801/IDQ60801.94590.json